.
WxDataArchive / Data Records for 2014-07-06
2014-07-05 July 2014 2014-07-07

Data Records for Sunday, 06 July 2014

Time	Temp	Chill	HIndex	Humid	Dewpt	 Wind 	HiWind	WindDir	Rain 	Barom
-----	----	-----	------	-----	-----	------	------	-------	-----	-----
00:00	66.0	66.0	66.0	64	53.5	0	0	---	0.00	30.071 
00:05	66.1	66.1	66.1	65	54.0	0	0	---	0.00	30.071 
00:10	66.1	66.1	66.1	64	53.6	0	0	---	0.00	30.071 
00:15	66.3	66.3	66.3	63	53.3	0	0	---	0.00	30.068 
00:20	66.4	66.4	66.4	63	53.4	0	0	---	0.00	30.068 
00:25	66.8	66.8	66.8	63	53.8	0	0	---	0.00	30.068 
00:30	66.8	66.8	66.8	63	53.8	0	0	---	0.00	30.063 
00:35	66.9	66.9	66.9	63	53.9	0	0	---	0.00	30.063 
00:40	67.1	67.1	67.1	62	53.6	0	0	---	0.00	30.063 
00:45	67.1	67.1	67.1	62	53.6	0	0	---	0.00	30.062 
00:50	66.9	66.9	66.9	63	53.9	0	0	---	0.00	30.062 
00:55	66.9	66.9	66.9	63	53.9	0	0	---	0.00	30.062 
01:00	66.9	66.9	66.9	63	53.9	0	0	---	0.00	30.061 
01:05	66.9	66.9	66.9	63	53.9	0	0	---	0.00	30.061 
01:10	66.9	66.9	66.9	64	54.3	0	0	---	0.00	30.061 
01:15	66.9	66.9	66.9	64	54.3	0	0	---	0.00	30.051 
01:20	66.9	66.9	66.9	64	54.3	0	0	---	0.00	30.051 
01:25	66.9	66.9	66.9	64	54.3	0	0	---	0.00	30.051 
01:30	66.9	66.9	66.9	64	54.3	0	0	---	0.00	30.053 
01:35	66.8	66.8	66.8	64	54.2	0	0	---	0.00	30.053 
01:40	66.8	66.8	66.8	64	54.2	0	0	---	0.00	30.053 
01:45	66.8	66.8	66.8	64	54.2	0	0	---	0.00	30.054 
01:50	66.8	66.8	66.8	64	54.2	0	0	---	0.00	30.054 
01:55	66.6	66.6	66.6	65	54.5	0	0	---	0.00	30.054 
02:00	66.6	66.6	66.6	64	54.0	0	0	---	0.00	30.046 
02:05	66.4	66.4	66.4	65	54.3	0	0	---	0.00	30.046 
02:10	66.4	66.4	66.4	65	54.3	0	0	---	0.00	30.046 
02:15	66.3	66.3	66.3	66	54.6	0	0	---	0.00	30.046 
02:20	66.1	66.1	66.1	67	54.8	0	0	---	0.00	30.046 
02:25	66.1	66.1	66.1	67	54.8	0	0	---	0.00	30.046 
02:30	66.0	66.0	66.0	67	54.7	0	0	---	0.00	30.042 
02:35	66.0	66.0	66.0	67	54.7	0	0	---	0.00	30.042 
02:40	66.0	66.0	66.0	67	54.7	0	0	---	0.00	30.042 
02:45	66.0	66.0	66.0	67	54.7	0	0	---	0.00	30.033 
02:50	66.0	66.0	66.0	68	55.1	0	0	---	0.00	30.033 
02:55	66.0	66.0	66.0	68	55.1	0	0	---	0.00	30.033 
03:00	66.0	66.0	66.0	68	55.1	0	0	---	0.00	30.031 
03:05	65.8	65.8	65.8	69	55.3	0	0	---	0.00	30.031 
03:10	65.8	65.8	65.8	69	55.3	0	1	68	0.00	30.031 
03:15	65.8	65.8	65.8	69	55.3	0	1	68	0.00	30.026 
03:20	65.8	65.8	65.8	68	54.9	0	0	---	0.00	30.026 
03:25	65.8	65.8	65.8	68	54.9	0	0	---	0.00	30.026 
03:30	66.0	66.0	66.0	67	54.7	0	0	---	0.00	30.017 
03:35	66.0	66.0	66.0	67	54.7	0	0	---	0.00	30.017 
03:40	66.0	66.0	66.0	67	54.7	0	0	---	0.00	30.017 
03:45	66.1	66.1	66.1	67	54.8	0	0	---	0.00	30.016 
03:50	66.1	66.1	66.1	67	54.8	0	0	---	0.00	30.016 
03:55	66.1	66.1	66.1	66	54.4	0	0	---	0.00	30.016 
04:00	66.1	66.1	66.1	66	54.4	0	0	---	0.00	30.015 
04:05	66.3	66.3	66.3	66	54.6	0	0	---	0.00	30.015 
04:10	66.3	66.3	66.3	66	54.6	0	0	---	0.00	30.015 
04:15	66.3	66.3	66.3	66	54.6	0	0	---	0.00	30.014 
04:20	66.3	66.3	66.3	67	55.0	0	0	---	0.00	30.014 
04:25	66.3	66.3	66.3	67	55.0	0	0	---	0.00	30.014 
04:30	66.3	66.3	66.3	68	55.4	0	0	---	0.00	30.011 
04:35	66.3	66.3	66.3	69	55.8	0	0	---	0.00	30.011 
04:40	66.1	66.1	66.1	69	55.6	0	0	---	0.00	30.011 
04:45	66.1	66.1	66.1	69	55.6	0	0	---	0.00	30.004 
04:50	66.1	66.1	66.1	69	55.6	0	0	---	0.00	30.004 
04:55	66.1	66.1	66.1	69	55.6	0	0	---	0.00	30.004 
05:00	66.1	66.1	66.1	69	55.6	0	0	---	0.00	30.001 
05:05	66.1	66.1	66.1	69	55.6	0	0	---	0.00	30.001 
05:10	66.1	66.1	66.1	69	55.6	0	0	---	0.00	30.001 
05:15	66.1	66.1	66.1	70	56.0	0	0	---	0.00	30.000 
05:20	66.0	66.0	66.0	69	55.5	0	0	---	0.00	30.000 
05:25	66.1	66.1	66.1	70	56.0	0	0	---	0.00	30.000 
05:30	66.1	66.1	66.1	69	55.6	0	0	---	0.00	29.999 
05:35	66.1	66.1	66.1	69	55.6	0	1	68	0.00	29.999 
05:40	66.1	66.1	66.1	69	55.6	0	0	---	0.00	29.999 
05:45	66.3	66.3	66.3	68	55.4	0	1	68	0.00	30.001 
05:50	66.6	66.6	66.6	67	55.3	0	1	68	0.00	30.001 
05:55	66.8	66.8	66.8	67	55.5	0	0	---	0.00	30.001 
06:00	66.9	66.9	66.9	67	55.6	0	1	68	0.00	29.998 
06:05	67.1	67.1	67.1	66	55.4	0	1	68	0.00	29.998 
06:10	67.3	67.3	67.3	66	55.5	0	0	---	0.00	29.998 
06:15	67.3	67.3	67.3	67	56.0	0	0	---	0.00	29.990 
06:20	67.3	67.3	67.3	67	56.0	0	0	---	0.00	29.990 
06:25	67.3	67.3	67.3	67	56.0	0	1	68	0.00	29.990 
06:30	67.3	67.3	67.3	68	56.4	0	0	---	0.00	29.997 
06:35	67.3	67.3	67.3	68	56.4	0	1	68	0.00	29.997 
06:40	67.3	67.3	67.3	69	56.8	0	1	68	0.00	29.997 
06:45	67.3	67.3	67.3	69	56.8	0	2	68	0.00	29.995 
06:50	67.3	67.3	67.3	69	56.8	0	1	0	0.00	29.995 
06:55	67.3	67.3	67.3	69	56.8	0	3	0	0.00	29.995 
07:00	67.3	67.3	67.3	70	57.2	0	1	338	0.00	29.991 
07:05	67.3	67.3	67.3	70	57.2	0	2	338	0.00	29.991 
07:10	67.3	67.3	67.3	70	57.2	0	1	338	0.00	29.991 
07:15	67.1	67.1	67.1	71	57.4	0	1	338	0.00	29.992 
07:20	67.1	67.1	67.1	71	57.4	0	1	338	0.00	29.992 
07:25	67.1	67.1	67.1	71	57.4	0	0	---	0.00	29.992 
07:30	66.9	66.9	66.9	72	57.6	0	0	---	0.00	29.987 
07:35	66.9	66.9	66.9	72	57.6	0	0	---	0.00	29.987 
07:40	66.9	66.9	66.9	72	57.6	0	1	338	0.00	29.987 
07:45	67.1	67.1	67.1	73	58.1	0	1	338	0.00	29.985 
07:50	67.1	67.1	67.1	73	58.1	0	1	248	0.00	29.985 
07:55	67.3	67.3	67.3	73	58.3	0	1	248	0.00	29.985 
08:00	67.4	67.4	67.4	73	58.4	0	0	---	0.00	29.987 
08:05	67.4	67.4	67.4	73	58.4	0	1	248	0.00	29.987 
08:10	67.4	67.4	67.4	72	58.1	0	1	248	0.00	29.987 
08:15	67.4	67.4	67.4	73	58.4	0	0	---	0.00	29.990 
08:20	67.3	67.3	67.3	73	58.3	0	0	---	0.00	29.990 
08:25	67.3	67.3	67.3	74	58.7	0	1	248	0.00	29.990 
08:30	67.4	67.4	67.4	74	58.8	0	1	248	0.00	29.990 
08:35	68.1	68.1	68.1	75	59.9	0	2	248	0.00	29.990 
08:40	69.1	69.1	69.1	70	58.9	0	3	248	0.00	29.990 
08:45	69.6	69.6	69.6	67	58.1	0	3	248	0.00	29.988 
08:50	69.6	69.6	69.6	65	57.3	0	3	248	0.00	29.988 
08:55	69.6	69.6	69.6	65	57.3	0	2	315	0.00	29.988 
09:00	69.6	69.6	69.6	66	57.7	0	1	315	0.00	29.989 
09:05	69.6	69.6	69.6	65	57.3	0	2	315	0.00	29.989 
09:10	69.6	69.6	69.6	66	57.7	0	1	315	0.00	29.989 
09:15	69.6	69.6	69.6	66	57.7	0	1	315	0.00	29.994 
09:20	69.6	69.6	69.6	66	57.7	0	1	315	0.00	29.994 
09:25	69.6	69.6	69.6	65	57.3	0	2	315	0.00	29.994 
09:30	70.1	70.1	70.1	66	58.2	0	2	315	0.00	29.990 
09:35	70.4	70.4	70.4	63	57.2	0	3	315	0.00	29.990 
09:40	70.4	70.4	70.4	62	56.7	1	5	315	0.00	29.990 
09:45	70.8	70.8	70.8	63	57.6	1	3	292	0.00	29.990 
09:50	70.4	70.4	70.4	62	56.7	1	3	292	0.00	29.990 
09:55	69.9	69.9	69.9	64	57.2	0	2	292	0.00	29.990 
10:00	69.6	69.6	69.6	65	57.3	0	1	292	0.00	29.989 
10:05	69.3	69.3	69.3	65	57.0	0	4	292	0.00	29.989 
10:10	69.1	69.1	69.1	66	57.3	1	4	270	0.00	29.989 
10:15	69.1	69.1	69.1	67	57.7	0	3	270	0.00	29.987 
10:20	68.9	68.9	68.9	67	57.5	0	2	270	0.00	29.987 
10:25	68.9	68.9	68.9	68	57.9	0	3	270	0.00	29.987 
10:30	68.9	68.9	68.9	69	58.3	0	1	270	0.00	29.981 
10:35	68.9	68.9	68.9	69	58.3	0	1	270	0.00	29.981 
10:40	69.3	69.3	69.3	68	58.3	1	4	270	0.00	29.981 
10:45	69.9	69.9	69.9	67	58.4	1	4	270	0.00	29.976 
10:50	70.6	70.6	70.6	67	59.1	0	3	270	0.00	29.976 
10:55	71.3	71.3	71.3	64	58.5	1	3	248	0.00	29.976 
11:00	71.6	71.6	71.6	65	59.2	1	3	270	0.00	29.968 
11:05	71.8	71.8	71.8	64	59.0	1	5	90	0.00	29.968 
11:10	71.6	71.6	71.6	64	58.8	1	4	292	0.00	29.968 
11:15	72.0	72.0	72.0	64	59.1	1	5	90	0.00	29.972 
11:20	72.8	72.8	72.8	63	59.5	1	4	68	0.00	29.972 
11:25	73.3	73.3	73.3	65	60.8	1	3	292	0.00	29.972 
11:30	73.5	73.5	73.5	61	59.2	1	4	292	0.00	29.965 
11:35	73.5	73.5	73.5	64	60.6	1	3	315	0.00	29.965 
11:40	73.5	73.5	73.5	62	59.7	1	4	270	0.00	29.965 
11:45	74.0	74.0	74.0	63	60.6	0	3	0	0.00	29.959 
11:50	74.2	74.2	74.2	63	60.8	1	3	315	0.00	29.959 
11:55	74.7	74.7	74.7	62	60.8	0	2	270	0.00	29.959 
12:00	75.3	75.3	77.5	60	60.4	1	3	270	0.00	29.952 
12:05	75.6	75.6	77.7	60	60.7	0	2	270	0.00	29.952 
12:10	75.4	75.4	77.7	57	59.1	1	3	270	0.00	29.952 
12:15	75.3	75.3	77.5	60	60.4	1	3	270	0.00	29.942 
12:20	75.4	75.4	77.6	59	60.1	1	3	0	0.00	29.942 
12:25	76.0	76.0	77.9	64	62.9	1	4	338	0.00	29.942 
12:30	76.0	76.0	78.0	58	60.1	1	4	270	0.00	29.937 
12:35	76.0	76.0	78.0	59	60.6	1	4	270	0.00	29.937 
12:40	76.0	76.0	78.0	59	60.6	1	3	248	0.00	29.937 
12:45	76.0	76.0	78.0	60	61.1	1	4	248	0.00	29.932 
12:50	76.3	76.3	78.2	59	60.9	1	4	248	0.00	29.932 
12:55	76.1	76.1	78.1	58	60.2	1	6	68	0.00	29.932 
13:00	76.1	76.1	78.1	60	61.2	1	4	270	0.00	29.933 
13:05	76.7	76.7	78.5	58	60.8	1	4	90	0.00	29.933 
13:10	76.8	76.8	78.6	58	60.9	1	5	90	0.00	29.933 
13:15	77.2	77.2	78.9	59	61.7	1	4	22	0.00	29.921 
13:20	77.2	77.2	78.9	59	61.7	1	5	292	0.00	29.921 
13:25	77.0	77.0	78.8	58	61.1	1	7	90	0.00	29.921 
13:30	77.2	77.2	78.9	59	61.7	1	4	248	0.00	29.920 
13:35	77.2	77.2	78.9	58	61.3	1	5	248	0.00	29.920 
13:40	77.4	77.4	79.1	60	62.4	1	4	68	0.00	29.920 
13:45	77.4	77.4	79.1	60	62.4	1	5	0	0.00	29.915 
13:50	77.4	77.4	79.1	58	61.4	1	3	0	0.00	29.915 
13:55	77.0	77.0	78.8	60	62.0	1	4	22	0.00	29.915 
14:00	76.7	76.7	78.5	61	62.2	0	3	292	0.00	29.917 
14:05	76.7	76.7	78.5	62	62.7	0	2	68	0.00	29.917 
14:10	76.5	76.5	78.4	60	61.6	1	3	90	0.00	29.917 
14:15	76.3	76.3	78.2	62	62.3	1	4	90	0.00	29.919 
14:20	76.5	76.5	78.4	62	62.5	1	4	248	0.00	29.919 
14:25	76.8	76.8	78.6	62	62.8	0	1	248	0.00	29.919 
14:30	77.4	77.4	79.2	63	63.8	0	2	248	0.00	29.906 
14:35	77.6	77.6	79.4	62	63.5	1	5	248	0.00	29.906 
14:40	77.4	77.4	79.1	61	62.9	1	3	90	0.00	29.906 
14:45	77.2	77.2	79.0	62	63.2	0	4	90	0.00	29.907 
14:50	77.0	77.0	78.8	63	63.4	1	2	338	0.00	29.907 
14:55	77.0	77.0	78.8	62	63.0	0	2	338	0.00	29.907 
15:00	77.0	77.0	78.8	63	63.4	0	2	338	0.00	29.904 
15:05	77.0	77.0	78.8	63	63.4	0	2	338	0.00	29.904 
15:10	76.8	76.8	78.6	63	63.2	1	4	338	0.00	29.904 
15:15	77.0	77.0	78.8	65	64.3	0	2	270	0.00	29.896 
15:20	77.6	77.6	79.4	65	64.9	1	6	292	0.00	29.896 
15:25	78.5	78.5	80.4	64	65.3	0	3	90	0.00	29.896 
15:30	79.0	79.0	80.8	61	64.4	1	3	90	0.00	29.887 
15:35	78.8	78.8	80.6	62	64.7	1	4	270	0.00	29.887 
15:40	78.6	78.6	80.4	62	64.5	1	4	270	0.00	29.887 
15:45	78.8	78.8	80.7	63	65.1	1	4	68	0.00	29.883 
15:50	79.4	79.4	81.4	63	65.7	0	2	45	0.00	29.883 
15:55	79.9	79.9	81.9	62	65.7	0	2	45	0.00	29.883 
16:00	80.1	80.1	82.2	62	65.9	1	3	292	0.00	29.878 
16:05	80.1	80.1	82.2	62	65.9	1	5	315	0.00	29.878 
16:10	79.8	79.8	81.7	61	65.1	1	4	292	0.00	29.878 
16:15	79.2	79.2	81.1	63	65.5	1	4	248	0.00	29.870 
16:20	79.2	79.2	81.1	62	65.0	1	4	248	0.00	29.870 
16:25	79.4	79.4	81.4	63	65.7	1	3	68	0.00	29.870 
16:30	79.4	79.4	81.4	63	65.7	0	3	0	0.00	29.867 
16:35	79.4	79.4	81.4	63	65.7	1	5	68	0.00	29.867 
16:40	78.8	78.8	80.7	64	65.6	1	3	68	0.00	29.867 
16:45	78.3	78.3	80.2	65	65.5	1	6	90	0.00	29.860 
16:50	78.1	78.1	80.0	65	65.4	1	3	68	0.00	29.860 
16:55	77.7	77.7	79.5	65	65.0	0	2	68	0.00	29.860 
17:00	77.4	77.4	79.2	66	65.1	1	3	68	0.00	29.857 
17:05	77.4	77.4	79.2	67	65.6	1	2	45	0.00	29.857 
17:10	77.6	77.6	79.5	67	65.8	0	3	45	0.00	29.857 
17:15	77.6	77.6	79.5	67	65.8	1	4	112	0.00	29.854 
17:20	77.4	77.4	79.2	67	65.6	0	4	270	0.00	29.854 
17:25	77.4	77.4	79.2	67	65.6	0	2	270	0.00	29.854 
17:30	77.4	77.4	79.2	67	65.6	0	1	270	0.00	29.855 
17:35	77.2	77.2	79.0	67	65.4	0	3	270	0.00	29.855 
17:40	77.2	77.2	79.0	68	65.8	0	2	270	0.00	29.855 
17:45	77.2	77.2	79.0	69	66.2	0	1	270	0.00	29.846 
17:50	77.4	77.4	79.2	69	66.4	1	3	270	0.00	29.846 
17:55	77.7	77.7	79.6	69	66.7	0	2	270	0.00	29.846 
18:00	78.1	78.1	80.1	68	66.7	0	1	270	0.00	29.840 
18:05	78.5	78.5	80.6	68	67.0	0	1	270	0.00	29.840 
18:10	78.5	78.5	80.5	67	66.6	0	3	270	0.00	29.840 
18:15	78.6	78.6	80.7	68	67.1	0	3	0	0.00	29.834 
18:20	78.5	78.5	80.6	68	67.0	0	1	0	0.00	29.834 
18:25	78.5	78.5	80.6	68	67.0	0	3	0	0.00	29.834 
18:30	78.5	78.5	80.7	69	67.5	1	4	338	0.00	29.825 
18:35	78.5	78.5	80.6	68	67.0	1	2	248	0.00	29.825 
18:40	78.6	78.6	80.8	69	67.6	0	2	248	0.00	29.825 
18:45	78.6	78.6	80.8	69	67.6	0	3	248	0.00	29.818 
18:50	78.8	78.8	81.1	69	67.7	1	3	248	0.00	29.818 
18:55	79.0	79.0	81.3	68	67.5	1	4	0	0.00	29.818 
19:00	79.2	79.2	81.6	69	68.1	1	2	270	0.00	29.806 
19:05	79.4	79.4	81.8	68	67.9	1	4	292	0.00	29.806 
19:10	79.4	79.4	81.8	68	67.9	1	3	270	0.00	29.806 
19:15	79.2	79.2	81.5	68	67.7	1	4	292	0.00	29.805 
19:20	79.2	79.2	81.6	69	68.1	0	4	315	0.00	29.805 
19:25	79.2	79.2	81.6	69	68.1	1	3	292	0.00	29.805 
19:30	79.4	79.4	81.9	69	68.3	1	3	292	0.00	29.803 
19:35	79.4	79.4	81.9	69	68.3	1	2	338	0.00	29.803 
19:40	79.4	79.4	81.9	69	68.3	0	2	338	0.00	29.803 
19:45	79.4	79.4	81.9	69	68.3	0	2	315	0.00	29.798 
19:50	79.4	79.4	81.9	69	68.3	1	4	315	0.00	29.798 
19:55	79.4	79.4	81.8	68	67.9	1	4	248	0.00	29.798 
20:00	79.4	79.4	81.8	68	67.9	0	3	248	0.00	29.794 
20:05	79.4	79.4	81.8	68	67.9	1	3	248	0.00	29.794 
20:10	79.2	79.2	81.5	67	67.3	1	3	248	0.00	29.794 
20:15	79.2	79.2	81.5	67	67.3	1	3	270	0.00	29.798 
20:20	79.2	79.2	81.5	67	67.3	1	4	270	0.00	29.798 
20:25	79.0	79.0	81.3	68	67.5	1	7	270	0.00	29.798 
20:30	78.8	78.8	81.0	68	67.3	1	2	292	0.00	29.801 
20:35	78.6	78.6	80.7	68	67.1	1	6	292	0.00	29.801 
20:40	78.6	78.6	80.7	68	67.1	1	5	248	0.00	29.801 
20:45	78.5	78.5	80.6	68	67.0	0	3	270	0.00	29.805 
20:50	78.5	78.5	80.6	68	67.0	1	3	270	0.00	29.805 
20:55	78.3	78.3	80.3	68	66.8	1	2	270	0.00	29.805 
21:00	78.3	78.3	80.4	69	67.3	0	3	270	0.00	29.804 
21:05	78.1	78.1	80.1	69	67.1	0	2	270	0.00	29.804 
21:10	77.9	77.9	79.9	69	66.9	0	4	270	0.00	29.804 
21:15	77.9	77.9	79.9	69	66.9	0	1	270	0.00	29.804 
21:20	77.7	77.7	79.6	70	67.1	0	1	270	0.00	29.804 
21:25	77.6	77.6	79.5	70	67.0	0	1	270	0.00	29.804 
21:30	77.4	77.4	79.3	70	66.8	0	2	270	0.00	29.804 
21:35	77.4	77.4	79.3	71	67.2	0	2	270	0.00	29.804 
21:40	77.4	77.4	79.3	71	67.2	0	1	270	0.00	29.804 
21:45	77.4	77.4	79.3	71	67.2	0	1	270	0.00	29.807 
21:50	77.4	77.4	79.3	71	67.2	0	3	270	0.00	29.807 
21:55	77.4	77.4	79.3	71	67.2	0	3	270	0.00	29.807 
22:00	77.4	77.4	79.3	71	67.2	0	1	270	0.00	29.812 
22:05	77.4	77.4	79.3	71	67.2	0	1	270	0.00	29.812 
22:10	77.4	77.4	79.3	71	67.2	0	2	270	0.00	29.812 
22:15	77.4	77.4	79.3	71	67.2	0	1	270	0.00	29.811 
22:20	77.2	77.2	79.0	72	67.5	0	1	270	0.00	29.811 
22:25	77.0	77.0	78.7	72	67.3	0	1	270	0.00	29.811 
22:30	76.7	76.7	78.3	73	67.4	0	1	270	0.00	29.807 
22:35	76.5	76.5	78.1	73	67.2	0	1	270	0.00	29.807 
22:40	76.3	76.3	77.8	74	67.4	0	1	270	0.00	29.807 
22:45	76.1	76.1	77.5	74	67.2	0	1	270	0.00	29.804 
22:50	76.0	76.0	77.4	75	67.5	0	2	270	0.00	29.804 
22:55	75.8	75.8	77.1	75	67.3	0	1	270	0.00	29.804 
23:00	75.6	75.6	76.8	76	67.5	0	1	270	0.00	29.791 
23:05	75.4	75.4	76.5	76	67.3	0	1	270	0.00	29.791 
23:10	75.4	75.4	76.5	76	67.3	0	1	270	0.00	29.791 
23:15	75.4	75.4	76.5	76	67.3	0	1	270	0.00	29.789 
23:20	75.4	75.4	76.5	76	67.3	0	1	270	0.00	29.789 
23:25	75.4	75.4	76.5	76	67.3	1	5	270	0.00	29.789 
23:30	75.4	75.4	76.5	76	67.3	0	3	248	0.00	29.787 
23:35	75.4	75.4	76.5	76	67.3	0	2	248	0.00	29.787 
23:40	75.4	75.4	76.5	76	67.3	1	3	248	0.00	29.787 
23:45	75.4	75.4	76.5	76	67.3	0	3	248	0.00	29.790 
23:50	75.4	75.4	76.6	75	66.9	1	3	248	0.00	29.790 
23:55	75.4	75.4	76.6	75	66.9	0	2	248	0.00	29.790 

CoCoRaHS
IN-AL-39
A2 Web Hosting
Creative Commons License
GoDaddy
search engine by freefind advanced

loaded 2018-11-18 11:04:48 • last modified 2010-11-18 10:43:29
Privacy PolicyDisclaimer
• wx.awcolley.com is powered by PmWiki v.2002016 •
• all content (unless otherwise noted) © 2018 A W Colley